createdAt,value
2022-08-17T00:00:43.429Z,67.60
2022-08-17T00:05:54.549Z,65.04
2022-08-17T00:10:59.835Z,63.09
2022-08-17T00:16:10.322Z,62.45
2022-08-17T00:21:23.850Z,61.95
2022-08-17T00:26:43.578Z,61.48
2022-08-17T00:31:52.737Z,60.50
2022-08-17T00:36:57.372Z,59.02
2022-08-17T00:42:01.617Z,60.68
2022-08-17T00:47:05.960Z,66.40
2022-08-17T00:52:19.606Z,66.50
2022-08-17T00:57:59.261Z,65.68
2022-08-17T01:03:11.487Z,64.39
2022-08-17T01:08:22.841Z,63.66
2022-08-17T01:13:28.312Z,61.99
2022-08-17T01:18:34.754Z,61.04
2022-08-17T01:23:39.088Z,59.87
2022-08-17T01:28:54.373Z,62.14
2022-08-17T01:34:05.204Z,67.32
2022-08-17T01:39:30.808Z,64.16
2022-08-17T01:44:38.919Z,64.01
2022-08-17T01:49:42.955Z,63.94
2022-08-17T01:55:02.423Z,64.22
2022-08-17T02:00:12.552Z,61.81
2022-08-17T02:05:17.699Z,60.66
2022-08-17T02:10:24.968Z,58.76
2022-08-17T02:15:38.721Z,64.73
2022-08-17T02:20:43.619Z,63.83
2022-08-17T02:25:49.276Z,62.01
2022-08-17T02:31:00.745Z,61.44
2022-08-17T02:36:11.454Z,60.98
2022-08-17T02:41:15.672Z,60.42
2022-08-17T02:46:20.812Z,58.85
2022-08-17T02:51:28.441Z,60.28
2022-08-17T02:56:32.688Z,65.77
2022-08-17T03:01:37.050Z,64.04
2022-08-17T03:06:41.070Z,65.31
2022-08-17T03:11:45.311Z,63.51
2022-08-17T03:16:50.477Z,62.17
2022-08-17T03:21:55.398Z,61.85
2022-08-17T03:26:59.763Z,60.81
2022-08-17T03:32:17.433Z,59.09
2022-08-17T03:37:21.552Z,60.28
2022-08-17T03:42:32.597Z,68.36
2022-08-17T03:47:56.130Z,64.11
2022-08-17T03:53:22.150Z,60.92
2022-08-17T03:58:26.287Z,58.12
2022-08-17T04:03:30.329Z,60.38
2022-08-17T04:08:36.232Z,67.09
2022-08-17T04:13:40.540Z,64.81
2022-08-17T04:18:44.364Z,61.90
2022-08-17T04:23:49.013Z,58.62
2022-08-17T04:28:53.259Z,62.52
2022-08-17T04:33:57.392Z,65.66
2022-08-17T04:39:02.325Z,63.14
2022-08-17T04:44:06.491Z,60.64
2022-08-17T04:49:12.653Z,57.67
2022-08-17T04:54:23.141Z,59.08
2022-08-17T04:59:27.274Z,66.00
2022-08-17T05:04:35.025Z,61.41
2022-08-17T05:09:39.445Z,57.58
2022-08-17T05:14:43.576Z,61.57
2022-08-17T05:19:51.836Z,63.72
2022-08-17T05:24:56.247Z,58.23
2022-08-17T05:30:02.038Z,62.06
2022-08-17T05:35:07.398Z,61.32
2022-08-17T05:40:12.350Z,58.76
2022-08-17T05:45:32.100Z,62.37
2022-08-17T05:51:31.656Z,60.78
2022-08-17T05:56:44.468Z,58.33
2022-08-17T06:02:04.269Z,59.28
2022-08-17T06:07:39.515Z,63.68
2022-08-17T06:13:08.416Z,58.72
2022-08-17T06:18:18.537Z,62.27
2022-08-17T06:23:44.295Z,60.96
2022-08-17T06:28:56.325Z,56.29
2022-08-17T06:34:04.379Z,58.01
2022-08-17T06:40:11.378Z,62.09
2022-08-17T06:45:29.370Z,57.30
2022-08-17T06:51:00.726Z,59.59
2022-08-17T06:56:22.771Z,61.76
2022-08-17T07:01:35.752Z,58.36
2022-08-17T07:06:57.652Z,58.57
2022-08-17T07:12:15.709Z,60.83
2022-08-17T07:17:46.700Z,61.32
2022-08-17T07:23:05.114Z,53.98
2022-08-17T07:28:09.499Z,55.74
2022-08-17T07:33:23.310Z,57.41
2022-08-17T07:38:34.702Z,56.43
2022-08-17T07:43:41.111Z,59.15
2022-08-17T07:48:55.563Z,58.79
2022-08-17T07:54:24.070Z,60.41
2022-08-17T08:00:12.666Z,60.57
2022-08-17T08:05:30.828Z,60.47
2022-08-17T08:11:34.367Z,60.14
2022-08-17T08:16:38.394Z,58.66
2022-08-17T08:22:03.725Z,58.06
2022-08-17T08:27:19.726Z,57.84
2022-08-17T08:32:57.568Z,56.87
2022-08-17T08:38:24.400Z,56.90
2022-08-17T08:43:55.534Z,56.11
2022-08-17T08:49:45.034Z,55.13
2022-08-17T08:55:04.376Z,54.51
2022-08-17T09:00:18.189Z,54.28
2022-08-17T09:06:37.329Z,52.08
2022-08-17T09:12:02.465Z,52.11
2022-08-17T09:18:03.528Z,51.17
2022-08-17T09:23:34.594Z,49.44
2022-08-17T09:28:43.999Z,49.84
2022-08-17T09:33:51.760Z,48.46
2022-08-17T09:39:12.753Z,48.10
2022-08-17T09:44:53.307Z,47.13
2022-08-17T09:51:04.286Z,46.02
2022-08-17T09:56:07.446Z,44.76
2022-08-17T10:02:00.277Z,43.15
2022-08-17T10:07:34.450Z,42.21
2022-08-17T10:12:49.586Z,42.52
2022-08-17T10:18:38.204Z,42.08
2022-08-17T10:24:04.785Z,41.24
2022-08-17T10:29:14.118Z,41.74
2022-08-17T10:35:02.661Z,41.51
2022-08-17T10:40:28.487Z,41.36
2022-08-17T10:46:31.211Z,41.06
2022-08-17T10:51:41.115Z,39.96
2022-08-17T10:56:51.843Z,39.20
2022-08-17T11:02:19.830Z,39.72
2022-08-17T11:08:02.338Z,39.83
2022-08-17T11:13:41.509Z,39.71
2022-08-17T11:19:10.779Z,39.69
2022-08-17T11:24:19.930Z,39.33
2022-08-17T11:29:49.443Z,38.06
2022-08-17T11:35:21.341Z,39.01
2022-08-17T11:41:20.504Z,39.66
2022-08-17T11:47:19.595Z,39.72
2022-08-17T11:52:48.602Z,39.84
2022-08-17T11:58:16.794Z,39.42
2022-08-17T12:03:32.869Z,39.28
2022-08-17T12:08:43.865Z,38.96
2022-08-17T12:13:55.846Z,39.24
2022-08-17T12:19:03.820Z,38.29
2022-08-17T12:25:01.831Z,38.27
2022-08-17T12:30:16.657Z,38.87
2022-08-17T12:35:39.560Z,38.60
2022-08-17T12:40:58.141Z,38.32
2022-08-17T12:46:15.270Z,38.05
2022-08-17T12:51:19.777Z,38.54
2022-08-17T12:56:23.916Z,38.08
2022-08-17T13:01:28.187Z,38.53
2022-08-17T13:06:37.085Z,39.86
2022-08-17T13:11:55.607Z,40.62
2022-08-17T13:17:07.365Z,41.30
2022-08-17T13:22:15.394Z,41.99
2022-08-17T13:27:23.614Z,42.38
2022-08-17T13:32:45.106Z,42.47
2022-08-17T13:38:38.322Z,42.03
2022-08-17T13:43:48.887Z,41.00
2022-08-17T13:49:10.334Z,40.89
2022-08-17T13:54:34.801Z,40.99
2022-08-17T13:59:52.993Z,40.58
2022-08-17T14:05:01.327Z,39.93
2022-08-17T14:10:15.587Z,39.92
2022-08-17T14:15:25.013Z,39.88
2022-08-17T14:20:50.591Z,40.19
2022-08-17T14:25:55.042Z,40.51
2022-08-17T14:30:59.353Z,40.38
2022-08-17T14:36:05.190Z,40.29
2022-08-17T14:41:09.781Z,39.55
2022-08-17T14:46:14.391Z,39.41
2022-08-17T14:51:23.826Z,39.57
2022-08-17T14:56:28.221Z,39.70
2022-08-17T15:01:39.605Z,40.00
2022-08-17T15:06:48.968Z,39.94
2022-08-17T15:11:54.461Z,39.56
2022-08-17T15:17:00.225Z,40.26
2022-08-17T15:22:04.655Z,40.86
2022-08-17T15:27:08.786Z,41.56
2022-08-17T15:32:33.096Z,42.12
2022-08-17T15:37:39.654Z,41.92
2022-08-17T15:42:43.717Z,41.81
2022-08-17T15:47:47.996Z,42.01
2022-08-17T15:53:01.647Z,42.18
2022-08-17T15:58:06.173Z,41.22
2022-08-17T16:03:45.351Z,39.68
2022-08-17T16:08:36.232Z,38.57
2022-08-17T16:13:42.248Z,37.24
2022-08-17T16:18:59.470Z,35.65
2022-08-17T16:24:13.226Z,34.87
2022-08-17T16:29:19.070Z,34.95
2022-08-17T16:34:24.025Z,36.36
2022-08-17T16:39:30.062Z,37.64
2022-08-17T16:44:34.339Z,39.31
2022-08-17T16:49:39.712Z,40.84
2022-08-17T16:54:45.960Z,42.37
2022-08-17T16:59:54.398Z,44.02
2022-08-17T17:05:59.452Z,44.81
2022-08-17T17:11:46.570Z,45.26
2022-08-17T17:17:19.793Z,46.27
2022-08-17T17:23:03.807Z,46.88
2022-08-17T17:28:36.809Z,47.46
2022-08-17T17:34:00.913Z,48.17
2022-08-17T17:39:37.091Z,48.51
2022-08-17T17:45:23.778Z,49.02
2022-08-17T17:50:41.314Z,49.44
2022-08-17T17:56:19.656Z,50.32
2022-08-17T18:02:53.632Z,50.77
2022-08-17T18:08:39.402Z,51.30
2022-08-17T18:14:26.518Z,52.35
2022-08-17T18:19:33.135Z,53.04
2022-08-17T18:24:41.633Z,53.57
2022-08-17T18:29:48.483Z,53.51
2022-08-17T18:35:28.380Z,53.68
2022-08-17T18:40:38.397Z,53.67
2022-08-17T18:45:58.568Z,53.92
2022-08-17T18:51:40.921Z,54.15
2022-08-17T18:57:00.268Z,54.39
2022-08-17T19:07:51.995Z,55.00
2022-08-17T19:13:12.697Z,55.49
2022-08-17T19:18:41.219Z,55.76
2022-08-17T19:24:01.538Z,56.01
2022-08-17T19:29:19.526Z,57.25
2022-08-17T19:34:34.458Z,58.04
2022-08-17T19:40:48.926Z,60.24
2022-08-17T19:46:07.872Z,60.57
2022-08-17T19:51:36.786Z,61.19
2022-08-17T19:57:12.539Z,68.44
2022-08-17T20:02:29.072Z,62.65
2022-08-17T20:08:12.602Z,56.13
2022-08-17T20:14:00.743Z,56.63
2022-08-17T20:19:35.432Z,57.96
2022-08-17T20:25:30.093Z,57.71
2022-08-17T20:30:43.051Z,58.87
2022-08-17T20:36:01.868Z,59.85
2022-08-17T20:41:10.810Z,61.67
2022-08-17T20:46:29.992Z,68.47
2022-08-17T20:52:01.448Z,64.73
2022-08-17T20:57:14.428Z,61.50
2022-08-17T21:02:24.791Z,58.95
2022-08-17T21:07:55.335Z,59.54
2022-08-17T21:13:15.672Z,60.40
2022-08-17T21:19:06.918Z,61.33
2022-08-17T21:24:33.166Z,66.98
2022-08-17T21:30:30.256Z,62.20
2022-08-17T21:36:16.633Z,56.60
2022-08-17T21:41:34.458Z,58.70
2022-08-17T21:46:46.469Z,60.40
2022-08-17T21:51:56.975Z,66.16
2022-08-17T21:57:06.404Z,64.27
2022-08-17T22:02:24.508Z,64.28
2022-08-17T22:08:00.403Z,63.70
2022-08-17T22:13:29.707Z,60.78
2022-08-17T22:18:34.901Z,57.60
2022-08-17T22:24:02.049Z,58.91
2022-08-17T22:29:57.475Z,60.98
2022-08-17T22:35:35.772Z,67.51
2022-08-17T22:40:40.627Z,64.70
2022-08-17T22:45:51.993Z,60.10
2022-08-17T22:51:14.714Z,56.58
2022-08-17T22:56:43.396Z,58.30
2022-08-17T23:02:16.343Z,60.04
2022-08-17T23:07:23.689Z,61.33
2022-08-17T23:12:28.240Z,67.99
2022-08-17T23:17:48.113Z,62.49
2022-08-17T23:22:54.289Z,57.76
2022-08-17T23:28:01.992Z,59.31
2022-08-17T23:33:12.577Z,61.55
2022-08-17T23:38:16.870Z,67.60
2022-08-17T23:43:24.212Z,65.80
2022-08-17T23:48:35.919Z,63.48
2022-08-17T23:53:50.895Z,62.11
2022-08-17T23:58:56.956Z,61.21
